createdAt,value
2018-07-25T00:01:51.742Z,93951.62
2018-07-25T00:04:21.676Z,93955.95
2018-07-25T00:06:51.547Z,93948.34
2018-07-25T00:09:21.330Z,93947.78
2018-07-25T00:11:51.411Z,93945.00
2018-07-25T00:14:21.483Z,93933.94
2018-07-25T00:16:51.272Z,93938.39
2018-07-25T00:19:21.139Z,93934.65
2018-07-25T00:21:51.332Z,93936.27
2018-07-25T00:24:21.268Z,93942.89
2018-07-25T00:26:50.958Z,93935.20
2018-07-25T00:29:20.752Z,93942.66
2018-07-25T00:31:50.764Z,93946.39
2018-07-25T00:34:20.634Z,93943.92
2018-07-25T00:36:50.426Z,93945.61
2018-07-25T00:39:20.046Z,93936.50
2018-07-25T00:41:50.006Z,93944.30
2018-07-25T00:44:19.859Z,93946.55
2018-07-25T00:46:49.897Z,93949.73
2018-07-25T00:49:19.699Z,93953.38
2018-07-25T00:51:49.683Z,93947.52
2018-07-25T00:54:19.287Z,93954.48
2018-07-25T00:56:49.016Z,93947.52
2018-07-25T00:59:18.684Z,93944.20
2018-07-25T01:01:48.241Z,93946.77
2018-07-25T01:04:18.173Z,93942.80
2018-07-25T01:06:48.346Z,93937.05
2018-07-25T01:09:18.262Z,93942.25
2018-07-25T01:11:48.033Z,93944.11
2018-07-25T01:14:18.100Z,93948.32
2018-07-25T01:16:47.902Z,93952.31
2018-07-25T01:19:17.970Z,93952.61
2018-07-25T01:21:47.936Z,93955.95
2018-07-25T01:24:17.493Z,93948.49
2018-07-25T01:26:47.116Z,93953.47
2018-07-25T01:29:16.729Z,93953.62
2018-07-25T01:31:46.597Z,93943.89
2018-07-25T01:34:16.655Z,93945.30
2018-07-25T01:36:46.570Z,93948.66
2018-07-25T01:39:16.386Z,93953.70
2018-07-25T01:41:46.213Z,93949.34
2018-07-25T01:44:15.817Z,93947.33
2018-07-25T01:46:45.606Z,93945.69
2018-07-25T01:49:15.440Z,93946.31
2018-07-25T01:51:45.383Z,93942.89
2018-07-25T01:54:14.919Z,93944.30
2018-07-25T01:56:44.748Z,93942.27
2018-07-25T01:59:14.509Z,93945.22
2018-07-25T02:01:44.723Z,93948.88
2018-07-25T02:04:14.694Z,93951.92
2018-07-25T02:06:44.288Z,93951.35
2018-07-25T02:09:14.506Z,93953.30
2018-07-25T02:11:44.325Z,93952.38
2018-07-25T02:14:14.295Z,93951.66
2018-07-25T02:16:44.103Z,93950.67
2018-07-25T02:19:13.861Z,93947.94
2018-07-25T02:21:43.597Z,93958.06
2018-07-25T02:24:13.214Z,93958.98
2018-07-25T02:26:42.816Z,93953.88
2018-07-25T02:29:12.898Z,93959.06
2018-07-25T02:31:42.618Z,93964.52
2018-07-25T02:34:17.507Z,93960.39
2018-07-25T02:36:47.519Z,93963.02
2018-07-25T02:39:17.562Z,93959.68
2018-07-25T02:41:47.563Z,93963.50
2018-07-25T02:44:17.650Z,93968.82
2018-07-25T02:46:47.546Z,93961.81
2018-07-25T02:49:17.608Z,93957.97
2018-07-25T02:51:47.326Z,93958.09
2018-07-25T02:54:17.102Z,93961.34
2018-07-25T02:56:46.846Z,93960.02
2018-07-25T02:59:16.811Z,93958.14
2018-07-25T03:01:46.776Z,93963.32
2018-07-25T03:04:16.712Z,93966.98
2018-07-25T03:06:46.771Z,93964.58
2018-07-25T03:09:16.470Z,93967.50
2018-07-25T03:11:46.402Z,93966.56
2018-07-25T03:14:16.180Z,93975.05
2018-07-25T03:16:46.071Z,93968.55
2018-07-25T03:19:16.136Z,93979.37
2018-07-25T03:21:45.791Z,93977.81
2018-07-25T03:24:15.574Z,93976.63
2018-07-25T03:26:45.203Z,93972.25
2018-07-25T03:29:14.892Z,93975.88
2018-07-25T03:31:44.695Z,93982.47
2018-07-25T03:34:14.466Z,93979.13
2018-07-25T03:36:44.260Z,93989.02
2018-07-25T03:39:13.926Z,93990.49
2018-07-25T03:41:43.740Z,93988.88
2018-07-25T03:44:13.633Z,93994.06
2018-07-25T03:46:43.261Z,93990.61
2018-07-25T03:49:13.177Z,93987.78
2018-07-25T03:51:42.739Z,93996.08
2018-07-25T03:54:12.526Z,94003.95
2018-07-25T03:56:42.226Z,94003.45
2018-07-25T03:59:12.011Z,94007.09
2018-07-25T04:01:42.142Z,94013.46
2018-07-25T04:04:11.991Z,94016.38
2018-07-25T04:06:42.088Z,94013.33
2018-07-25T04:09:12.076Z,94016.38
2018-07-25T04:11:41.955Z,94018.95
2018-07-25T04:14:11.762Z,94013.55
2018-07-25T04:16:41.559Z,94021.19
2018-07-25T04:19:11.695Z,94018.55
2018-07-25T04:21:41.363Z,94019.16
2018-07-25T04:24:10.910Z,94015.42
2018-07-25T04:26:40.824Z,94020.13
2018-07-25T04:29:10.487Z,94025.23
2018-07-25T04:31:40.475Z,94020.33
2018-07-25T04:34:10.222Z,94022.37
2018-07-25T04:36:40.142Z,94023.69
2018-07-25T04:39:11.901Z,94027.83
2018-07-25T04:41:42.010Z,94027.92
2018-07-25T04:44:11.999Z,94020.28
2018-07-25T04:46:41.949Z,94027.16
2018-07-25T04:49:11.560Z,94026.03
2018-07-25T04:51:41.167Z,94027.18
2018-07-25T04:54:10.751Z,94028.19
2018-07-25T04:56:40.430Z,94038.56
2018-07-25T04:59:10.214Z,94037.09
2018-07-25T05:01:39.991Z,94033.88
2018-07-25T05:04:09.786Z,94040.34
2018-07-25T05:06:39.574Z,94043.08
2018-07-25T05:09:10.311Z,94040.91
2018-07-25T05:11:40.687Z,94044.08
2018-07-25T05:14:10.551Z,94038.02
2018-07-25T05:16:40.234Z,94039.01
2018-07-25T05:19:09.802Z,94037.41
2018-07-25T05:21:39.353Z,94039.80
2018-07-25T05:24:09.187Z,94039.97
2018-07-25T05:26:38.769Z,94041.83
2018-07-25T05:29:08.857Z,94042.78
2018-07-25T05:31:38.767Z,94039.98
2018-07-25T05:34:08.608Z,94034.39
2018-07-25T05:36:38.562Z,94040.14
2018-07-25T05:39:10.980Z,94038.34
2018-07-25T05:41:41.363Z,94031.03
2018-07-25T05:44:11.228Z,94028.92
2018-07-25T05:46:41.138Z,94039.03
2018-07-25T05:49:11.078Z,94045.10
2018-07-25T05:51:40.939Z,94058.33
2018-07-25T05:54:10.560Z,94046.03
2018-07-25T05:56:40.203Z,94047.41
2018-07-25T05:59:09.888Z,94049.66
2018-07-25T06:01:39.578Z,94052.30
2018-07-25T06:04:09.446Z,94052.39
2018-07-25T06:06:39.356Z,94046.32
2018-07-25T06:09:10.440Z,94066.23
2018-07-25T06:11:40.567Z,94063.66
2018-07-25T06:14:10.603Z,94063.04
2018-07-25T06:16:40.562Z,94065.72
2018-07-25T06:19:10.528Z,94069.23
2018-07-25T06:21:40.493Z,94064.30
2018-07-25T06:24:10.596Z,94063.04
2018-07-25T06:26:40.210Z,94067.99
2018-07-25T06:29:14.938Z,94066.73
2018-07-25T06:31:44.608Z,94067.06
2018-07-25T06:34:14.623Z,94065.90
2018-07-25T06:36:44.322Z,94068.47
2018-07-25T06:39:14.458Z,94072.51
2018-07-25T06:41:44.332Z,94070.73
2018-07-25T06:44:14.079Z,94069.88
2018-07-25T06:46:43.944Z,94079.68
2018-07-25T06:49:14.106Z,94081.74
2018-07-25T06:51:44.027Z,94077.18
2018-07-25T06:54:13.651Z,94080.30
2018-07-25T06:56:43.318Z,94079.59
2018-07-25T06:59:13.041Z,94082.72
2018-07-25T07:01:42.691Z,94081.47
2018-07-25T07:04:12.272Z,94084.94
2018-07-25T07:06:42.068Z,94086.11
2018-07-25T07:09:12.138Z,94088.76
2018-07-25T07:11:42.018Z,94088.70
2018-07-25T07:14:11.775Z,94091.16
2018-07-25T07:16:41.709Z,94098.08
2018-07-25T07:19:11.465Z,94098.86
2018-07-25T07:21:41.286Z,94092.13
2018-07-25T07:24:10.958Z,94093.89
2018-07-25T07:26:40.823Z,94096.41
2018-07-25T07:29:10.568Z,94107.52
2018-07-25T07:31:40.152Z,94097.52
2018-07-25T07:34:09.804Z,94097.16
2018-07-25T07:36:39.499Z,94094.50
2018-07-25T07:39:12.023Z,94090.90
2018-07-25T07:41:41.700Z,94084.66
2018-07-25T07:44:11.759Z,94094.16
2018-07-25T07:46:41.710Z,94092.47
2018-07-25T07:49:11.662Z,94096.11
2018-07-25T07:51:41.506Z,94093.35
2018-07-25T07:54:11.290Z,94087.10
2018-07-25T07:56:41.264Z,94100.73
2018-07-25T07:59:11.453Z,94100.16
2018-07-25T08:01:41.390Z,94098.38
2018-07-25T08:04:11.132Z,94102.09
2018-07-25T08:06:41.190Z,94103.01
2018-07-25T08:09:12.708Z,94100.06
2018-07-25T08:11:42.239Z,94106.94
2018-07-25T08:14:11.966Z,94102.44
2018-07-25T08:16:42.040Z,94108.19
2018-07-25T08:19:12.419Z,94107.23
2018-07-25T08:21:42.228Z,94110.67
2018-07-25T08:24:12.068Z,94105.62
2018-07-25T08:26:42.005Z,94098.78
2018-07-25T08:29:11.974Z,94101.48
2018-07-25T08:31:41.660Z,94108.03
2018-07-25T08:34:11.642Z,94117.14
2018-07-25T08:36:41.451Z,94105.95
2018-07-25T08:39:11.252Z,94112.14
2018-07-25T08:41:41.092Z,94106.09
2018-07-25T08:44:10.849Z,94111.67
2018-07-25T08:46:40.656Z,94113.97
2018-07-25T08:49:10.389Z,94114.34
2018-07-25T08:51:40.052Z,94113.33
2018-07-25T08:54:09.852Z,94110.63
2018-07-25T08:56:40.639Z,94117.58
2018-07-25T08:59:10.741Z,94115.55
2018-07-25T09:01:40.642Z,94123.49
2018-07-25T09:04:10.588Z,94112.52
2018-07-25T09:06:40.522Z,94104.00
2018-07-25T09:09:11.034Z,94109.47
2018-07-25T09:11:40.597Z,94107.94
2018-07-25T09:14:10.178Z,94107.55
2018-07-25T09:16:40.064Z,94105.94
2018-07-25T09:19:09.951Z,94106.92
2018-07-25T09:21:39.651Z,94110.84
2018-07-25T09:24:09.614Z,94106.62
2018-07-25T09:26:39.419Z,94096.31
2018-07-25T09:29:09.226Z,94098.01
2018-07-25T09:31:39.320Z,94100.41
2018-07-25T09:34:09.477Z,94104.89
2018-07-25T09:36:39.317Z,94105.36
2018-07-25T09:39:11.106Z,94107.32
2018-07-25T09:41:40.916Z,94105.62
2018-07-25T09:44:10.626Z,94102.88
2018-07-25T09:46:40.360Z,94105.06
2018-07-25T09:49:09.977Z,94099.80
2018-07-25T09:51:39.864Z,94095.05
2018-07-25T09:54:09.650Z,94096.26
2018-07-25T09:56:39.448Z,94092.84
2018-07-25T09:59:09.605Z,94092.33
2018-07-25T10:01:39.362Z,94090.62
2018-07-25T10:04:09.159Z,94083.80
2018-07-25T10:06:38.910Z,94081.59
2018-07-25T10:09:11.259Z,94075.09
2018-07-25T10:11:41.017Z,94069.00
2018-07-25T10:14:11.074Z,94066.34
2018-07-25T10:16:40.694Z,94064.00
2018-07-25T10:19:10.346Z,94070.44
2018-07-25T10:21:39.978Z,94075.20
2018-07-25T10:24:09.618Z,94073.23
2018-07-25T10:26:39.206Z,94075.06
2018-07-25T10:29:08.825Z,94072.14
2018-07-25T10:31:38.496Z,94071.70
2018-07-25T10:34:08.318Z,94069.59
2018-07-25T10:36:38.211Z,94074.16
2018-07-25T10:39:09.304Z,94042.72
2018-07-25T10:41:40.720Z,94084.18
2018-07-25T10:44:10.595Z,94085.51
2018-07-25T10:46:40.262Z,94082.83
2018-07-25T10:49:09.902Z,94086.86
2018-07-25T10:51:39.437Z,94085.67
2018-07-25T10:54:09.132Z,94096.34
2018-07-25T10:56:38.826Z,94091.00
2018-07-25T10:59:08.522Z,94094.41
2018-07-25T11:01:38.634Z,94094.66
2018-07-25T11:04:08.239Z,94106.67
2018-07-25T11:06:38.059Z,94098.73
2018-07-25T11:09:08.999Z,94089.07
2018-07-25T11:11:39.165Z,94092.45
2018-07-25T11:14:09.686Z,94091.59
2018-07-25T11:16:40.332Z,94098.30
2018-07-25T11:19:11.182Z,94095.87
2018-07-25T11:21:41.797Z,94094.69
2018-07-25T11:24:11.433Z,94095.29
2018-07-25T11:26:41.383Z,94094.66
2018-07-25T11:29:11.450Z,94097.34
2018-07-25T11:31:41.419Z,94104.51
2018-07-25T11:34:11.419Z,94102.70
2018-07-25T11:36:41.378Z,94105.17
2018-07-25T11:39:12.724Z,94103.13
2018-07-25T11:41:42.660Z,94109.39
2018-07-25T11:44:12.707Z,94108.02
2018-07-25T11:46:42.556Z,94101.11
2018-07-25T11:49:12.198Z,94102.08
2018-07-25T11:51:41.815Z,94098.52
2018-07-25T11:54:12.888Z,94085.55
2018-07-25T11:56:42.582Z,94081.39
2018-07-25T11:59:12.111Z,94077.08
2018-07-25T12:01:42.141Z,94076.69
2018-07-25T12:04:12.141Z,94080.94
2018-07-25T12:06:41.957Z,94073.09
2018-07-25T12:09:12.388Z,94079.74
2018-07-25T12:11:45.783Z,94072.91
2018-07-25T12:14:17.055Z,94079.06
2018-07-25T12:16:46.999Z,94080.08
2018-07-25T12:19:16.580Z,94073.87
2018-07-25T12:21:46.590Z,94072.57
2018-07-25T12:24:16.542Z,94076.20
2018-07-25T12:26:46.179Z,94070.18
2018-07-25T12:29:15.797Z,94063.02
2018-07-25T12:31:45.945Z,94064.17
2018-07-25T12:34:15.878Z,94065.94
2018-07-25T12:36:45.777Z,94058.73
2018-07-25T12:39:15.548Z,94071.11
2018-07-25T12:41:45.404Z,94066.38
2018-07-25T12:44:15.050Z,94070.12
2018-07-25T12:46:44.984Z,94063.04
2018-07-25T12:49:15.834Z,94057.88
2018-07-25T12:51:46.587Z,94050.88
2018-07-25T12:54:17.976Z,94058.27
2018-07-25T12:56:48.344Z,94060.50
2018-07-25T12:59:18.137Z,94058.28
2018-07-25T13:01:48.107Z,94059.27
2018-07-25T13:04:18.091Z,94063.19
2018-07-25T13:06:48.091Z,94054.98
2018-07-25T13:09:18.082Z,94048.72
2018-07-25T13:11:47.882Z,94050.55
2018-07-25T13:14:18.506Z,94045.12
2018-07-25T13:16:48.492Z,94049.84
2018-07-25T13:19:18.525Z,94046.28
2018-07-25T13:21:48.483Z,94042.59
2018-07-25T13:24:18.521Z,94044.59
2018-07-25T13:26:48.968Z,94047.06
2018-07-25T13:29:18.901Z,94052.46
2018-07-25T13:31:48.960Z,94042.29
2018-07-25T13:34:18.750Z,94049.19
2018-07-25T13:36:48.832Z,94056.38
2018-07-25T13:39:18.585Z,94041.83
2018-07-25T13:41:48.765Z,94044.18
2018-07-25T13:44:18.819Z,94043.05
2018-07-25T13:46:48.678Z,94046.09
2018-07-25T13:49:18.859Z,94041.02
2018-07-25T13:51:49.092Z,94044.74
2018-07-25T13:54:18.956Z,94045.42
2018-07-25T13:56:48.815Z,94044.35
2018-07-25T13:59:18.733Z,94034.43
2018-07-25T14:01:48.275Z,94031.65
2018-07-25T14:04:17.960Z,94027.22
2018-07-25T14:06:47.864Z,94024.05
2018-07-25T14:09:17.778Z,94030.50
2018-07-25T14:11:47.644Z,94027.45
2018-07-25T14:14:17.631Z,94018.87
2018-07-25T14:16:47.881Z,94023.13
2018-07-25T14:19:17.587Z,94021.67
2018-07-25T14:21:47.503Z,94021.67
2018-07-25T14:24:17.351Z,94016.14
2018-07-25T14:26:47.684Z,94023.05
2018-07-25T14:29:17.482Z,94020.08
2018-07-25T14:31:47.107Z,94021.19
2018-07-25T14:34:16.915Z,94030.75
2018-07-25T14:36:46.893Z,94030.16
2018-07-25T14:39:18.205Z,94025.37
2018-07-25T14:41:49.655Z,94035.57
2018-07-25T14:44:20.130Z,94035.16
2018-07-25T14:46:50.068Z,94037.72
2018-07-25T14:49:19.629Z,94038.53
2018-07-25T14:51:49.570Z,94045.41
2018-07-25T14:54:19.226Z,94040.27
2018-07-25T14:56:49.112Z,94047.16
2018-07-25T14:59:18.959Z,94055.09
2018-07-25T15:01:48.923Z,94052.03
2018-07-25T15:04:18.830Z,94054.70
2018-07-25T15:06:48.455Z,94053.08
2018-07-25T15:09:18.102Z,94060.30
2018-07-25T15:11:47.747Z,94048.05
2018-07-25T15:14:17.574Z,94045.39
2018-07-25T15:16:47.454Z,94044.34
2018-07-25T15:19:17.232Z,94044.88
2018-07-25T15:21:47.428Z,94051.59
2018-07-25T15:24:17.309Z,94041.73
2018-07-25T15:26:47.129Z,94043.42
2018-07-25T15:29:17.021Z,94047.43
2018-07-25T15:34:16.469Z,94046.25
2018-07-25T15:36:49.536Z,94047.77
2018-07-25T15:39:21.674Z,94056.39
2018-07-25T15:41:52.193Z,94050.32
2018-07-25T15:44:23.240Z,94048.86
2018-07-25T15:46:53.239Z,94042.98
2018-07-25T15:49:29.627Z,94050.73
2018-07-25T15:51:59.503Z,94056.32
2018-07-25T15:54:29.513Z,94042.24
2018-07-25T15:56:59.532Z,94052.15
2018-07-25T15:59:29.466Z,94048.84
2018-07-25T16:01:59.594Z,94049.73
2018-07-25T16:04:29.441Z,94046.77
2018-07-25T16:07:00.022Z,94048.03
2018-07-25T16:09:29.701Z,94048.82
2018-07-25T16:11:59.542Z,94039.75
2018-07-25T16:14:29.234Z,94041.20
2018-07-25T16:16:59.015Z,94042.50
2018-07-25T16:19:28.959Z,94044.58
2018-07-25T16:21:58.828Z,94058.81
2018-07-25T16:24:28.752Z,94069.05
2018-07-25T16:26:58.499Z,94067.07
2018-07-25T16:29:28.195Z,94072.78
2018-07-25T16:31:57.992Z,94071.70
2018-07-25T16:34:27.696Z,94068.98
2018-07-25T16:36:57.649Z,94080.08
2018-07-25T16:39:27.682Z,94079.39
2018-07-25T16:41:57.266Z,94086.33
2018-07-25T16:44:27.010Z,94086.57
2018-07-25T16:46:56.571Z,94082.95
2018-07-25T16:49:26.451Z,94085.92
2018-07-25T16:51:56.404Z,94093.61
2018-07-25T16:54:26.275Z,94101.11
2018-07-25T16:56:55.865Z,94105.12
2018-07-25T16:59:25.913Z,94116.52
2018-07-25T17:01:55.694Z,94112.22
2018-07-25T17:04:25.578Z,94109.26
2018-07-25T17:06:55.400Z,94111.92
2018-07-25T17:09:25.269Z,94118.13
2018-07-25T17:11:55.282Z,94115.55
2018-07-25T17:14:24.868Z,94120.73
2018-07-25T17:16:54.842Z,94120.11
2018-07-25T17:19:24.923Z,94130.18
2018-07-25T17:21:55.062Z,94128.98
2018-07-25T17:24:24.837Z,94128.74
2018-07-25T17:26:54.727Z,94143.42
2018-07-25T17:29:24.509Z,94150.88
2018-07-25T17:31:54.323Z,94155.70
2018-07-25T17:34:24.190Z,94161.30
2018-07-25T17:36:53.947Z,94162.50
2018-07-25T17:39:23.760Z,94169.81
2018-07-25T17:41:53.755Z,94169.83
2018-07-25T17:44:23.848Z,94173.50
2018-07-25T17:46:53.499Z,94179.12
2018-07-25T17:49:23.243Z,94185.65
2018-07-25T17:51:52.991Z,94188.56
2018-07-25T17:54:23.021Z,94186.23
2018-07-25T17:56:53.028Z,94182.34
2018-07-25T17:59:22.659Z,94180.75
2018-07-25T18:01:52.650Z,94186.27
2018-07-25T18:04:22.507Z,94189.62
2018-07-25T18:06:52.551Z,94189.48
2018-07-25T18:09:22.380Z,94185.74
2018-07-25T18:11:52.334Z,94190.76
2018-07-25T18:14:22.167Z,94185.98
2018-07-25T18:16:52.033Z,94182.17
2018-07-25T18:19:21.818Z,94183.28
2018-07-25T18:21:51.372Z,94189.58
2018-07-25T18:24:21.026Z,94189.20
2018-07-25T18:26:50.638Z,94188.27
2018-07-25T18:29:20.537Z,94190.34
2018-07-25T18:31:50.226Z,94188.72
2018-07-25T18:34:19.948Z,94189.05
2018-07-25T18:36:49.763Z,94197.84
2018-07-25T18:39:19.735Z,94196.83
2018-07-25T18:41:49.484Z,94199.45
2018-07-25T18:44:19.462Z,94199.45
2018-07-25T18:46:49.367Z,94208.23
2018-07-25T18:49:19.399Z,94213.66
2018-07-25T18:51:49.248Z,94225.25
2018-07-25T18:57:00.105Z,94223.47
2018-07-25T18:59:29.713Z,94213.56
2018-07-25T19:01:59.526Z,94222.05
2018-07-25T19:04:29.316Z,94229.23
2018-07-25T19:06:59.219Z,94232.08
2018-07-25T19:09:28.952Z,94234.81
2018-07-25T19:11:58.582Z,94226.34
2018-07-25T19:14:33.427Z,94232.14
2018-07-25T19:17:03.155Z,94236.74
2018-07-25T19:19:32.829Z,94241.80
2018-07-25T19:22:02.848Z,94251.02
2018-07-25T19:24:32.382Z,94246.45
2018-07-25T19:27:02.438Z,94243.88
2018-07-25T19:29:32.096Z,94240.43
2018-07-25T19:32:02.193Z,94228.12
2018-07-25T19:34:32.054Z,94227.28
2018-07-25T19:37:01.929Z,94229.92
2018-07-25T19:39:36.522Z,94224.73
2018-07-25T19:42:07.507Z,94224.33
2018-07-25T19:44:37.447Z,94222.52
2018-07-25T19:47:07.587Z,94220.31
2018-07-25T19:49:37.388Z,94217.80
2018-07-25T19:52:07.253Z,94218.13
2018-07-25T19:54:37.240Z,94215.89
2018-07-25T19:57:07.024Z,94218.03
2018-07-25T19:59:36.903Z,94216.05
2018-07-25T20:02:06.588Z,94216.02
2018-07-25T20:04:36.224Z,94206.81
2018-07-25T20:07:06.286Z,94204.11
2018-07-25T20:09:36.202Z,94206.69
2018-07-25T20:12:05.819Z,94200.23
2018-07-25T20:14:40.877Z,94203.28
2018-07-25T20:17:10.636Z,94198.59
2018-07-25T20:19:40.267Z,94200.80
2018-07-25T20:22:09.912Z,94198.72
2018-07-25T20:24:39.738Z,94198.18
2018-07-25T20:27:09.409Z,94202.13
2018-07-25T20:29:39.273Z,94202.49
2018-07-25T20:32:08.857Z,94202.63
2018-07-25T20:34:38.438Z,94209.49
2018-07-25T20:37:08.134Z,94214.36
2018-07-25T20:39:38.164Z,94216.68
2018-07-25T20:42:08.318Z,94215.24
2018-07-25T20:44:38.035Z,94214.17
2018-07-25T20:47:08.016Z,94211.78
2018-07-25T20:49:37.625Z,94210.16
2018-07-25T20:52:07.539Z,94201.28
2018-07-25T20:54:37.301Z,94205.41
2018-07-25T20:57:07.115Z,94201.33
2018-07-25T20:59:36.758Z,94200.13
2018-07-25T21:02:06.682Z,94199.72
2018-07-25T21:04:36.320Z,94198.97
2018-07-25T21:07:05.952Z,94204.75
2018-07-25T21:09:35.638Z,94205.36
2018-07-25T21:12:05.229Z,94211.64
2018-07-25T21:14:35.019Z,94203.78
2018-07-25T21:17:04.628Z,94204.48
2018-07-25T21:19:34.379Z,94204.02
2018-07-25T21:22:03.919Z,94210.56
2018-07-25T21:24:33.954Z,94208.21
2018-07-25T21:27:03.615Z,94208.41
2018-07-25T21:29:33.394Z,94200.00
2018-07-25T21:32:03.210Z,94209.72
2018-07-25T21:34:33.088Z,94205.89
2018-07-25T21:37:03.215Z,94211.05
2018-07-25T21:39:32.896Z,94206.48
2018-07-25T21:42:02.480Z,94204.36
2018-07-25T21:44:32.435Z,94201.72
2018-07-25T21:47:02.280Z,94189.66
2018-07-25T21:49:32.233Z,94193.13
2018-07-25T21:52:02.502Z,94193.67
2018-07-25T21:54:32.379Z,94188.13
2018-07-25T21:57:02.482Z,94198.08
2018-07-25T21:59:32.561Z,94187.88
2018-07-25T22:02:02.410Z,94184.98
2018-07-25T22:04:32.335Z,94182.21
2018-07-25T22:07:01.972Z,94180.96
2018-07-25T22:09:31.746Z,94179.64
2018-07-25T22:12:01.554Z,94174.05
2018-07-25T22:14:31.128Z,94182.30
2018-07-25T22:17:01.410Z,94177.83
2018-07-25T22:19:31.275Z,94191.60
2018-07-25T22:22:01.214Z,94186.68
2018-07-25T22:24:31.183Z,94185.86
2018-07-25T22:27:01.147Z,94196.88
2018-07-25T22:29:31.385Z,94200.58
2018-07-25T22:32:01.423Z,94194.24
2018-07-25T22:34:31.206Z,94186.61
2018-07-25T22:37:00.995Z,94197.20
2018-07-25T22:39:30.828Z,94190.64
2018-07-25T22:42:00.470Z,94190.36
2018-07-25T22:44:30.521Z,94192.14
2018-07-25T22:47:00.543Z,94189.92
2018-07-25T22:49:30.143Z,94180.62
2018-07-25T22:51:59.816Z,94188.33
2018-07-25T22:54:29.503Z,94192.64
2018-07-25T22:56:59.327Z,94194.64
2018-07-25T22:59:29.163Z,94183.41
2018-07-25T23:01:59.189Z,94181.09
2018-07-25T23:04:28.916Z,94180.19
2018-07-25T23:06:58.943Z,94176.31
2018-07-25T23:09:28.671Z,94182.05
2018-07-25T23:11:58.406Z,94181.76
2018-07-25T23:14:28.232Z,94180.63
2018-07-25T23:16:57.718Z,94178.48
2018-07-25T23:19:27.396Z,94185.32
2018-07-25T23:21:56.997Z,94196.45
2018-07-25T23:24:26.635Z,94202.23
2018-07-25T23:26:56.477Z,94194.53
2018-07-25T23:29:26.652Z,94196.88
2018-07-25T23:31:56.562Z,94201.52
2018-07-25T23:34:26.327Z,94199.03
2018-07-25T23:36:56.199Z,94200.34
2018-07-25T23:39:25.845Z,94200.98
2018-07-25T23:41:55.606Z,94196.28
2018-07-25T23:44:25.303Z,94205.16
2018-07-25T23:46:55.029Z,94200.98
2018-07-25T23:49:24.656Z,94206.73
2018-07-25T23:51:54.604Z,94206.48
2018-07-25T23:54:24.204Z,94211.48
2018-07-25T23:56:53.763Z,94211.73
2018-07-25T23:59:23.348Z,94215.94
